Time;durP1;ratioP1;P1;durP2;ratioP2;P2;SDS_P1;SDS_P2;PMS_P1;PMS_P2;Temp;Humidity;BMP_temperature;BMP_pressure;BME280_temperature;BME280_humidity;BME280_pressure;Samples;Min_cycle;Max_cycle;Signal;HPM_P1;HPM_P2
2022/12/18 00:01:33;;;;;;;9.38;3.50;;;;;;;6.37;85.45;94644.94;6194758;23;20044;-78
2022/12/18 00:04:00;;;;;;;7.22;3.97;;;;;;;6.35;85.40;94641.75;6195260;23;20005;-79
2022/12/18 00:06:27;;;;;;;6.18;3.75;;;;;;;6.23;85.51;94649.19;6194584;23;20029;-80
2022/12/18 00:08:55;;;;;;;5.55;4.32;;;;;;;6.15;85.56;94652.38;6194407;23;20290;-78
2022/12/18 00:11:22;;;;;;;6.85;4.18;;;;;;;6.13;86.05;94657.13;6194840;23;20047;-78
2022/12/18 00:13:48;;;;;;;8.20;4.78;;;;;;;6.16;85.98;94656.59;6194606;23;19997;-78
2022/12/18 00:16:20;;;;;;;8.20;4.82;;;;;;;6.04;86.08;94662.13;6194736;23;20024;-80
2022/12/18 00:18:46;;;;;;;7.72;4.47;;;;;;;5.99;86.23;94670.09;6168419;23;20004;-79
2022/12/18 00:21:13;;;;;;;7.65;5.00;;;;;;;5.90;86.37;94663.69;6194302;23;20008;-79
2022/12/18 00:23:40;;;;;;;9.77;5.90;;;;;;;5.78;86.85;94672.69;6194506;23;20005;-78
2022/12/18 00:26:10;;;;;;;9.07;4.95;;;;;;;5.72;87.07;94678.19;6194528;23;19997;-77
2022/12/18 00:28:35;;;;;;;10.88;5.35;;;;;;;5.68;87.37;94677.13;6194400;23;19997;-78
2022/12/18 00:31:01;;;;;;;9.25;5.07;;;;;;;5.67;87.07;94676.34;6194539;23;20016;-80
2022/12/18 00:33:27;;;;;;;9.10;5.43;;;;;;;5.57;87.66;94678.97;6194348;23;20016;-80
2022/12/18 00:35:53;;;;;;;9.13;5.15;;;;;;;5.57;87.62;94681.63;6194713;23;19996;-80
2022/12/18 00:38:19;;;;;;;9.80;5.13;;;;;;;5.61;88.12;94683.47;6194581;23;20055;-80
2022/12/18 00:40:44;;;;;;;11.10;6.07;;;;;;;5.61;87.59;94682.69;6194394;23;20314;-80
2022/12/18 00:43:09;;;;;;;9.27;5.57;;;;;;;5.66;87.35;94684.53;6194383;23;20018;-79
2022/12/18 00:45:35;;;;;;;7.93;4.90;;;;;;;5.68;86.64;94695.66;6194713;23;20345;-79
2022/12/18 00:48:00;;;;;;;10.60;5.25;;;;;;;5.60;86.88;94696.97;6194266;23;20008;-79
2022/12/18 00:50:26;;;;;;;9.38;5.50;;;;;;;5.49;87.13;94690.06;6168020;23;19993;-79
2022/12/18 00:52:52;;;;;;;9.65;5.57;;;;;;;5.49;87.05;94700.63;6194457;23;20005;-79
2022/12/18 00:55:18;;;;;;;9.98;4.78;;;;;;;5.50;87.09;94699.59;6194114;23;20309;-79
2022/12/18 00:57:44;;;;;;;8.75;5.13;;;;;;;5.47;86.80;94694.81;6194334;23;20021;-79
2022/12/18 01:00:14;;;;;;;7.80;4.88;;;;;;;5.47;86.35;94692.97;6167882;23;20283;-79
2022/12/18 01:02:40;;;;;;;8.23;5.13;;;;;;;5.41;85.54;94699.28;6194312;23;20004;-79
2022/12/18 01:05:06;;;;;;;11.75;5.20;;;;;;;5.46;85.84;94703.81;6193972;23;20052;-79
2022/12/18 01:07:32;;;;;;;9.05;5.30;;;;;;;5.49;85.54;94706.72;6194061;23;19997;-79
2022/12/18 01:09:57;;;;;;;9.75;5.03;;;;;;;5.43;85.35;94710.41;6194254;23;20013;-79
2022/12/18 01:12:23;;;;;;;8.65;4.82;;;;;;;5.39;85.11;94714.63;6168078;23;20001;-79
2022/12/18 01:14:48;;;;;;;8.10;4.80;;;;;;;5.25;85.23;94719.59;6194157;23;20040;-79
2022/12/18 01:17:14;;;;;;;10.18;5.60;;;;;;;5.13;85.69;94719.00;6194426;23;20047;-79
2022/12/18 01:19:39;;;;;;;9.80;5.35;;;;;;;5.10;85.22;94719.53;6194743;23;19993;-79
2022/12/18 01:22:05;;;;;;;11.10;4.65;;;;;;;5.05;84.87;94724.78;6196236;23;20055;-79
2022/12/18 01:24:30;;;;;;;9.95;4.80;;;;;;;5.00;84.84;94726.34;6196237;23;20020;-79
2022/12/18 01:26:57;;;;;;;8.70;5.13;;;;;;;4.96;85.15;94730.53;6196233;23;20127;-79
2022/12/18 01:29:22;;;;;;;10.43;5.88;;;;;;;4.88;85.80;94738.16;6196459;23;20179;-79
2022/12/18 01:31:48;;;;;;;10.13;5.93;;;;;;;4.89;86.06;94735.28;6196048;23;19997;-79
2022/12/18 01:34:14;;;;;;;10.50;6.80;;;;;;;4.90;85.92;94736.84;6196262;23;20056;-79
2022/12/18 01:36:39;;;;;;;11.98;6.82;;;;;;;4.87;86.03;94736.59;6195943;23;20008;-80
2022/12/18 01:39:11;;;;;;;9.73;5.47;;;;;;;4.81;86.09;94736.53;6195956;23;20004;-79
2022/12/18 01:44:58;;;;;;;12.60;6.68;;;;;;;4.79;86.06;94741.28;6196285;23;20052;-79
2022/12/18 01:47:24;;;;;;;10.68;6.40;;;;;;;4.73;85.95;94744.16;6195972;23;20001;-79
2022/12/18 01:49:50;;;;;;;16.42;7.00;;;;;;;4.66;85.93;94746.19;6196199;23;20036;-79
2022/12/18 01:52:17;;;;;;;11.80;6.60;;;;;;;4.63;86.00;94743.03;6196021;23;20032;-80
2022/12/18 01:54:43;;;;;;;16.15;7.15;;;;;;;4.56;86.19;94750.38;6195918;23;19997;-79
2022/12/18 01:57:09;;;;;;;12.75;6.93;;;;;;;4.49;86.74;94741.88;6195828;23;20329;-80
2022/12/18 01:59:35;;;;;;;11.60;7.10;;;;;;;4.48;87.10;94745.56;6195754;23;19997;-80
2022/12/18 02:02:02;;;;;;;13.88;7.35;;;;;;;4.53;86.84;94747.44;6195925;23;20199;-80
2022/12/18 02:04:27;;;;;;;11.93;6.90;;;;;;;4.57;86.89;94749.31;6169602;23;20001;-80
2022/12/18 02:07:08;;;;;;;12.52;7.15;;;;;;;4.57;86.37;94749.31;6195648;23;20020;-79
2022/12/18 02:09:50;;;;;;;13.98;6.88;;;;;;;4.52;85.93;94754.56;6195848;23;19996;-79
2022/12/18 02:12:20;;;;;;;13.88;6.95;;;;;;;4.49;85.95;94757.69;6195752;23;20060;-79
2022/12/18 02:15:00;;;;;;;14.90;7.00;;;;;;;4.47;86.66;94761.66;6195965;23;19996;-80
2022/12/18 02:17:35;;;;;;;12.48;7.93;;;;;;;4.42;86.57;94763.19;6195608;23;19997;-79
2022/12/18 02:20:07;;;;;;;14.00;7.40;;;;;;;4.44;86.58;94760.31;6169537;23;19997;-79
2022/12/18 02:23:04;;;;;;;14.15;7.13;;;;;;;4.47;86.72;94764.28;6195299;23;20000;-80
2022/12/18 02:26:07;;;;;;;16.92;7.88;;;;;;;4.46;86.37;94767.97;6064642;23;20258;-80
2022/12/18 02:28:38;;;;;;;14.90;7.13;;;;;;;4.42;86.88;94772.97;6195449;23;20043;-81
2022/12/18 02:31:09;;;;;;;14.35;7.53;;;;;;;4.46;86.78;94763.50;6195253;23;20144;-81
2022/12/18 02:33:36;;;;;;;14.18;7.22;;;;;;;4.47;86.92;94773.00;6195634;23;20299;-80
2022/12/18 02:36:04;;;;;;;14.63;7.60;;;;;;;4.47;86.59;94765.06;6195264;23;20039;-81
2022/12/18 02:38:31;;;;;;;13.07;7.55;;;;;;;4.42;86.54;94763.19;6195552;23;20008;-81
2022/12/18 02:40:57;;;;;;;12.38;7.55;;;;;;;4.43;86.33;94766.63;6195664;23;19993;-81
2022/12/18 02:43:22;;;;;;;10.70;6.35;;;;;;;4.40;86.37;94775.84;6195690;23;20047;-81
2022/12/18 02:46:00;;;;;;;13.93;6.57;;;;;;;4.37;86.53;94778.19;6195278;23;20001;-81
2022/12/18 02:48:33;;;;;;;13.35;6.82;;;;;;;4.32;86.63;94778.94;6195311;23;20013;-80
2022/12/18 02:51:23;;;;;;;14.52;7.05;;;;;;;4.33;86.76;94779.75;6195365;23;20043;-80
2022/12/18 02:53:56;;;;;;;14.73;7.57;;;;;;;4.31;86.41;94766.78;6195719;23;20001;-80
2022/12/18 02:56:35;;;;;;;;;;;;;;;4.33;86.28;94774.47;6169608;23;20027;-80
2022/12/18 02:59:15;;;;;;;12.52;6.32;;;;;;;4.25;86.06;94780.19;6195514;23;19910;-80
2022/12/18 03:01:54;;;;;;;14.15;6.55;;;;;;;4.21;86.31;94772.81;6195277;23;20024;-80
2022/12/18 03:04:26;;;;;;;13.20;7.35;;;;;;;4.18;86.39;94778.56;6195398;23;20000;-80
2022/12/18 03:06:56;;;;;;;13.27;6.68;;;;;;;4.27;85.91;94792.09;6168878;23;20303;-79
2022/12/18 03:09:39;;;;;;;12.88;6.75;;;;;;;4.18;85.79;94786.47;6195411;23;20049;-79
2022/12/18 03:12:23;;;;;;;10.73;6.38;;;;;;;4.17;85.67;94795.47;6195328;23;20179;-79
2022/12/18 03:15:04;;;;;;;8.98;5.82;;;;;;;4.12;85.78;94798.03;6195170;23;20264;-79
2022/12/18 03:17:32;;;;;;;10.55;5.75;;;;;;;4.10;85.70;94794.84;6195243;23;20329;-79
2022/12/18 03:20:03;;;;;;;10.23;5.47;;;;;;;4.07;85.73;94795.34;6194994;23;20203;-79
2022/12/18 03:22:32;;;;;;;10.20;5.70;;;;;;;3.95;86.09;94799.97;6194896;23;19993;-79
2022/12/18 03:25:00;;;;;;;10.93;6.32;;;;;;;4.01;86.40;94802.41;6195053;23;20303;-79
2022/12/18 03:27:28;;;;;;;9.02;5.05;;;;;;;4.00;86.33;94792.09;6195175;23;20114;-79
2022/12/18 03:30:07;;;;;;;7.57;3.92;;;;;;;3.97;85.63;94790.78;6195153;23;20008;-79
2022/12/18 03:32:42;;;;;;;7.82;3.90;;;;;;;3.95;85.28;94790.22;6195025;23;19997;-79
2022/12/18 03:35:10;;;;;;;7.05;4.35;;;;;;;3.98;84.88;94810.81;6194804;23;20020;-80
2022/12/18 03:37:35;;;;;;;9.60;4.55;;;;;;;3.98;84.69;94818.72;6195017;23;19997;-79
2022/12/18 03:40:02;;;;;;;8.10;4.07;;;;;;;3.95;84.30;94823.72;6194959;23;20024;-79
2022/12/18 03:42:42;;;;;;;7.35;3.92;;;;;;;4.00;84.55;94821.13;6195028;23;20199;-81
2022/12/18 03:45:31;;;;;;;7.55;4.28;;;;;;;3.91;84.07;94835.78;6195340;23;20027;-82
2022/12/18 03:48:02;;;;;;;5.70;3.53;;;;;;;3.89;83.87;94833.41;6195212;23;20199;-81
2022/12/18 03:50:46;;;;;;;6.63;3.83;;;;;;;3.82;84.26;94841.50;6194987;23;20060;-81
2022/12/18 03:53:36;;;;;;;7.57;4.20;;;;;;;3.84;84.40;94840.47;6194828;23;20020;-79
2022/12/18 03:56:04;;;;;;;7.85;4.00;;;;;;;3.82;84.65;94848.63;6194775;23;20274;-79
2022/12/18 03:58:32;;;;;;;7.15;4.18;;;;;;;3.77;84.62;94857.28;6194955;23;20000;-77
2022/12/18 04:01:02;;;;;;;6.35;3.97;;;;;;;3.81;84.47;94850.47;6194728;23;19993;-78
2022/12/18 04:03:29;;;;;;;8.82;4.35;;;;;;;3.77;84.75;94844.09;6168538;23;20008;-78
2022/12/18 04:05:57;;;;;;;6.82;3.63;;;;;;;3.80;84.73;94856.75;6194407;23;20004;-78
2022/12/18 04:08:24;;;;;;;8.90;4.15;;;;;;;3.71;84.39;94858.25;6195067;23;20187;-78
2022/12/18 04:10:49;;;;;;;6.68;3.97;;;;;;;3.72;84.30;94859.81;6194892;23;20193;-78
2022/12/18 04:13:23;;;;;;;9.32;3.97;;;;;;;3.69;84.66;94864.81;6194479;23;20000;-78
2022/12/18 04:15:48;;;;;;;7.43;4.22;;;;;;;3.61;84.22;94874.72;6194579;23;19997;-78
2022/12/18 04:18:14;;;;;;;7.25;4.28;;;;;;;3.64;83.81;94859.47;6194695;23;20024;-78
2022/12/18 04:20:39;;;;;;;9.38;5.03;;;;;;;3.63;83.47;94871.84;6194473;23;19996;-78
2022/12/18 04:23:04;;;;;;;7.05;4.18;;;;;;;3.63;83.81;94874.50;6194444;23;20039;-78
2022/12/18 04:25:30;;;;;;;8.40;4.40;;;;;;;3.66;83.54;94876.63;6194661;23;20053;-78
2022/12/18 04:27:55;;;;;;;10.07;4.65;;;;;;;3.57;83.65;94888.66;6194572;23;20008;-78
2022/12/18 04:30:21;;;;;;;9.75;4.50;;;;;;;3.48;83.45;94876.91;6194511;23;20191;-78
2022/12/18 04:32:46;;;;;;;6.72;3.80;;;;;;;3.51;83.42;94879.88;6194320;23;20009;-78
2022/12/18 04:35:12;;;;;;;9.68;4.03;;;;;;;3.53;82.71;94898.88;6194581;23;20061;-78
2022/12/18 04:37:37;;;;;;;8.43;3.80;;;;;;;3.47;82.33;94896.44;6194594;23;20001;-78
2022/12/18 04:40:03;;;;;;;8.25;4.45;;;;;;;3.49;81.57;94910.16;6194329;23;20295;-78
2022/12/18 04:42:29;;;;;;;8.55;4.40;;;;;;;3.46;81.81;94902.72;6194235;23;20016;-78
2022/12/18 04:44:54;;;;;;;8.60;4.68;;;;;;;3.45;81.64;94917.75;6194316;23;20008;-77
2022/12/18 04:47:20;;;;;;;10.18;4.53;;;;;;;3.38;81.19;94903.94;6194660;23;20021;-78
2022/12/18 04:49:45;;;;;;;13.52;5.32;;;;;;;3.32;81.76;94912.81;6194523;23;20022;-78
2022/12/18 04:52:11;;;;;;;10.07;4.75;;;;;;;3.35;81.35;94905.22;6194351;23;20027;-78
2022/12/18 04:54:36;;;;;;;10.40;5.35;;;;;;;3.39;81.72;94903.69;6193920;23;20084;-78
2022/12/18 04:57:02;;;;;;;10.80;5.80;;;;;;;3.39;82.49;94918.72;6168049;23;19997;-78
2022/12/18 04:59:27;;;;;;;11.55;5.47;;;;;;;3.30;82.43;94917.53;6194268;23;20235;-78
2022/12/18 05:01:52;;;;;;;10.45;5.40;;;;;;;3.34;81.49;94921.28;6194548;23;19997;-78
2022/12/18 05:04:18;;;;;;;9.23;4.93;;;;;;;3.35;81.48;94941.31;6194157;23;20056;-78
2022/12/18 05:06:43;;;;;;;9.10;4.80;;;;;;;3.33;81.00;94930.22;6193879;23;20228;-78
2022/12/18 05:09:09;;;;;;;13.52;6.60;;;;;;;3.33;80.91;94931.00;6194117;23;20064;-78
2022/12/18 05:11:34;;;;;;;11.52;6.00;;;;;;;3.37;81.72;94926.06;6194229;23;20005;-78
2022/12/18 05:14:00;;;;;;;11.07;5.90;;;;;;;3.38;81.69;94939.00;6194012;23;20056;-78
2022/12/18 05:16:25;;;;;;;14.05;6.53;;;;;;;3.46;81.75;94939.63;6167911;23;20295;-78
2022/12/18 05:18:51;;;;;;;11.02;6.13;;;;;;;3.38;81.16;94931.09;6194400;23;20017;-79
2022/12/18 05:21:16;;;;;;;15.48;5.60;;;;;;;3.45;81.13;94944.09;6194077;23;20008;-79
2022/12/18 05:23:42;;;;;;;12.10;5.68;;;;;;;3.53;80.27;94946.31;6194223;23;20052;-79
2022/12/18 05:26:07;;;;;;;9.57;5.10;;;;;;;3.48;79.91;94951.53;6194358;23;20004;-79
2022/12/18 05:28:34;;;;;;;10.40;5.50;;;;;;;3.49;80.39;94953.13;6194260;23;20003;-79
2022/12/18 05:31:02;;;;;;;12.52;7.68;;;;;;;3.52;80.51;94955.28;6193945;23;20031;-79
2022/12/18 05:33:30;;;;;;;15.98;7.60;;;;;;;3.55;80.58;94960.06;6194207;23;20051;-78
2022/12/18 05:35:58;;;;;;;12.25;6.60;;;;;;;3.54;80.66;94971.66;6194110;23;20004;-78
2022/12/18 05:38:25;;;;;;;10.02;5.60;;;;;;;3.44;80.62;94978.59;6194238;23;20008;-78
2022/12/18 05:40:51;;;;;;;14.40;7.45;;;;;;;3.51;80.74;94980.03;6193982;23;20001;-78
2022/12/18 05:43:19;;;;;;;10.65;5.63;;;;;;;3.39;79.77;94971.41;6194140;23;20172;-78
2022/12/18 05:45:45;;;;;;;15.23;5.93;;;;;;;3.42;80.56;94986.78;6194129;23;20009;-78
2022/12/18 05:48:10;;;;;;;14.57;6.50;;;;;;;3.42;80.14;94970.97;6194036;23;20067;-78
2022/12/18 05:50:37;;;;;;;11.80;6.75;;;;;;;3.44;79.11;94979.41;6193831;23;20016;-78
2022/12/18 05:53:03;;;;;;;14.32;6.65;;;;;;;3.37;79.69;94976.13;6194092;23;20013;-78
2022/12/18 05:55:32;;;;;;;16.20;8.27;;;;;;;3.26;79.74;94988.34;6193963;23;20001;-78
2022/12/18 05:57:57;;;;;;;18.23;9.02;;;;;;;3.14;80.21;94992.91;6193675;23;20282;-78
2022/12/18 06:00:23;;;;;;;20.30;8.07;;;;;;;3.17;80.56;95000.31;6193924;23;20008;-78
2022/12/18 06:02:48;;;;;;;25.85;9.50;;;;;;;3.13;80.03;95004.47;6194153;23;19997;-78
2022/12/18 06:05:14;;;;;;;15.93;7.80;;;;;;;3.06;80.54;95001.19;6194079;23;20188;-78
2022/12/18 06:07:39;;;;;;;16.60;9.05;;;;;;;3.01;81.07;95002.72;6195072;23;20295;-80
2022/12/18 06:10:05;;;;;;;18.50;8.68;;;;;;;2.97;81.47;95006.84;6195879;23;19996;-79
2022/12/18 06:12:33;;;;;;;13.70;7.90;;;;;;;3.02;80.89;95000.88;6195530;23;20015;-79
2022/12/18 06:14:59;;;;;;;17.13;8.25;;;;;;;3.05;80.76;95002.22;6195707;23;20023;-79
2022/12/18 06:17:28;;;;;;;16.73;8.00;;;;;;;3.01;81.36;95018.50;6195545;23;20060;-79
2022/12/18 06:19:54;;;;;;;15.65;8.38;;;;;;;3.02;81.07;95008.75;6195672;23;19997;-79
2022/12/18 06:22:19;;;;;;;16.08;7.65;;;;;;;3.10;81.29;95012.84;6195772;23;20319;-79
2022/12/18 06:24:45;;;;;;;13.55;7.07;;;;;;;3.12;80.73;95016.84;6195613;23;20001;-79
2022/12/18 06:27:10;;;;;;;15.27;7.38;;;;;;;3.15;80.53;95026.09;6195578;23;20073;-79
2022/12/18 06:29:35;;;;;;;13.05;6.57;;;;;;;3.19;80.02;95019.31;6169452;23;20035;-80
2022/12/18 06:32:01;;;;;;;15.50;7.20;;;;;;;3.19;79.38;95019.31;6195617;23;20012;-79
2022/12/18 06:34:26;;;;;;;12.90;6.80;;;;;;;3.12;78.73;95023.97;6195457;23;20303;-79
2022/12/18 06:36:52;;;;;;;14.85;6.82;;;;;;;3.17;78.93;95026.66;6195656;23;20017;-79
2022/12/18 06:39:18;;;;;;;15.65;8.45;;;;;;;3.20;79.16;95027.00;6195809;23;20172;-79
2022/12/18 06:41:43;;;;;;;13.48;6.95;;;;;;;3.21;78.70;95038.31;6195619;23;20043;-79
2022/12/18 06:44:08;;;;;;;14.75;6.85;;;;;;;3.18;78.52;95044.09;6169051;23;19997;-79
2022/12/18 06:46:34;;;;;;;13.60;6.68;;;;;;;3.18;77.97;95038.81;6195473;23;20283;-79
2022/12/18 06:48:59;;;;;;;12.65;6.20;;;;;;;3.21;78.21;95044.38;6195521;23;20060;-79
2022/12/18 06:51:26;;;;;;;19.15;8.05;;;;;;;3.21;77.43;95038.31;6169187;23;19997;-78
2022/12/18 06:53:51;;;;;;;14.40;7.38;;;;;;;3.29;78.30;95055.59;6195580;23;20012;-79
2022/12/18 06:56:17;;;;;;;15.75;8.13;;;;;;;3.35;77.64;95049.38;6195497;23;20349;-79
2022/12/18 06:58:42;;;;;;;15.00;7.25;;;;;;;3.26;76.49;95054.22;6195258;23;20190;-79
2022/12/18 07:01:10;;;;;;;12.27;6.53;;;;;;;3.25;75.78;95073.69;6195378;23;19997;-79
2022/12/18 07:03:37;;;;;;;11.80;6.70;;;;;;;3.15;76.26;95053.22;6195167;23;20024;-79
2022/12/18 07:06:03;;;;;;;14.85;7.18;;;;;;;3.20;75.97;95052.56;6195226;23;20013;-77
2022/12/18 07:08:30;;;;;;;14.70;8.63;;;;;;;3.20;76.40;95063.09;6195229;23;20203;-78
2022/12/18 07:10:55;;;;;;;16.52;7.32;;;;;;;3.21;77.16;95054.13;6195219;23;20001;-79
2022/12/18 07:13:21;;;;;;;16.60;7.15;;;;;;;3.25;76.17;95054.47;6195022;23;20061;-79
2022/12/18 07:15:47;;;;;;;13.07;6.90;;;;;;;3.21;76.41;95046.22;6195131;23;19997;-79
2022/12/18 07:18:12;;;;;;;12.57;6.55;;;;;;;3.24;76.73;95066.84;6194998;23;20012;-78
2022/12/18 07:20:37;;;;;;;15.02;7.50;;;;;;;3.22;75.23;95087.38;6168865;23;20001;-80
2022/12/18 07:23:05;;;;;;;10.43;6.35;;;;;;;3.21;75.26;95069.94;6169004;23;20009;-79
2022/12/18 07:25:36;;;;;;;14.00;7.05;;;;;;;3.22;74.85;95071.56;6195281;23;20005;-79
2022/12/18 07:28:03;;;;;;;13.68;7.30;;;;;;;3.29;75.04;95088.00;6195223;23;19997;-79
2022/12/18 07:30:28;;;;;;;18.67;7.53;;;;;;;3.29;74.46;95079.31;6168867;23;19989;-79
2022/12/18 07:32:54;;;;;;;14.55;6.97;;;;;;;3.16;74.40;95088.31;6195346;23;20001;-78
2022/12/18 07:35:19;;;;;;;13.27;6.30;;;;;;;3.16;74.41;95085.69;6195239;23;20004;-78
2022/12/18 07:37:45;;;;;;;14.15;7.53;;;;;;;3.10;74.92;95083.97;6194910;23;20026;-79
2022/12/18 07:40:11;;;;;;;15.98;8.18;;;;;;;3.21;75.32;95076.00;6195205;23;20001;-79
2022/12/18 07:42:36;;;;;;;16.95;8.00;;;;;;;3.28;75.60;95088.22;6195022;23;20313;-78
2022/12/18 07:45:05;;;;;;;19.08;8.15;;;;;;;3.18;74.85;95089.66;6194926;23;20051;-77
2022/12/18 07:47:33;;;;;;;16.90;8.18;;;;;;;3.25;75.31;95094.00;6194902;23;19997;-79
2022/12/18 07:49:58;;;;;;;16.65;8.38;;;;;;;3.32;75.13;95099.94;6194912;23;20333;-79
2022/12/18 07:52:24;;;;;;;13.90;7.65;;;;;;;3.28;74.54;95112.78;6194624;23;20005;-77
2022/12/18 07:54:49;;;;;;;15.35;8.07;;;;;;;3.32;73.66;95107.84;6195268;23;20001;-79
2022/12/18 07:57:16;;;;;;;16.80;8.15;;;;;;;3.31;73.75;95100.94;6194885;23;20173;-78
2022/12/18 07:59:41;;;;;;;14.88;7.32;;;;;;;3.27;73.76;95105.09;6194765;23;19993;-78
2022/12/18 08:02:07;;;;;;;16.77;8.15;;;;;;;3.39;73.93;95111.09;6194718;23;20028;-78
2022/12/18 08:04:35;;;;;;;19.55;7.50;;;;;;;3.45;73.89;95115.44;6194959;23;19993;-79
2022/12/18 08:07:00;;;;;;;20.33;9.15;;;;;;;3.33;74.39;95118.13;6168271;23;20005;-79
2022/12/18 08:09:26;;;;;;;23.30;10.65;;;;;;;3.35;75.26;95128.44;6194315;23;20019;-77
2022/12/18 08:11:52;;;;;;;17.98;9.82;;;;;;;3.39;75.26;95119.81;6194886;23;20013;-78
2022/12/18 08:14:17;;;;;;;22.70;10.98;;;;;;;3.40;75.37;95131.97;6194892;23;20061;-78
2022/12/18 08:16:42;;;;;;;26.83;12.05;;;;;;;3.37;75.02;95134.25;6194754;23;20004;-78
2022/12/18 08:19:08;;;;;;;22.15;10.30;;;;;;;3.29;74.70;95137.28;6194594;23;20065;-78
2022/12/18 08:21:33;;;;;;;22.90;11.02;;;;;;;3.29;74.92;95147.81;6194707;23;20295;-78
2022/12/18 08:24:00;;;;;;;21.80;11.73;;;;;;;3.19;75.42;95151.06;6194661;23;20020;-77
2022/12/18 08:26:29;;;;;;;23.48;11.43;;;;;;;3.15;75.35;95149.94;6194675;23;19997;-82
2022/12/18 08:28:56;;;;;;;25.63;12.48;;;;;;;3.25;76.48;95157.22;6194269;23;20219;-81
2022/12/18 08:31:54;;;;;;;24.92;12.52;;;;;;;3.57;79.41;95157.56;6193854;23;20287;-82
2022/12/18 08:34:19;;;;;;;23.58;11.90;;;;;;;3.60;76.58;95151.78;6113740;23;20000;-82
2022/12/18 08:36:45;;;;;;;21.08;11.68;;;;;;;3.74;78.35;95163.63;6167613;23;20102;-82
2022/12/18 08:39:10;;;;;;;27.92;12.13;;;;;;;3.77;76.63;95147.34;6194253;23;19997;-82
2022/12/18 08:41:36;;;;;;;24.40;11.75;;;;;;;3.74;75.26;95158.38;6192724;23;20048;-82
2022/12/18 08:46:45;;;;;;;27.25;13.75;;;;;;;3.73;74.78;95166.53;6192271;23;20333;-82
2022/12/18 08:49:12;;;;;;;26.10;11.45;;;;;;;3.89;75.96;95160.47;6191785;23;19993;-82
2022/12/18 08:51:38;;;;;;;26.52;12.05;;;;;;;3.91;74.72;95166.31;6192276;23;19997;-82
2022/12/18 08:54:04;;;;;;;32.05;14.13;;;;;;;3.87;73.91;95167.00;6192188;23;19997;-82
2022/12/18 08:56:30;;;;;;;28.08;13.95;;;;;;;3.91;75.17;95168.13;6192443;23;19997;-82
2022/12/18 08:58:56;;;;;;;28.58;14.27;;;;;;;3.87;75.05;95159.09;6191996;23;20271;-82
2022/12/18 09:01:22;;;;;;;31.75;14.52;;;;;;;3.82;75.59;95165.09;6192371;23;20023;-82
2022/12/18 09:03:51;;;;;;;28.30;14.00;;;;;;;3.86;75.61;95163.56;6192491;23;20222;-81
2022/12/18 09:06:18;;;;;;;30.88;14.32;;;;;;;3.80;74.37;95154.78;6192646;23;20060;-82
2022/12/18 09:08:44;;;;;;;32.10;14.60;;;;;;;3.80;74.57;95154.78;6194232;23;20005;-81
2022/12/18 09:11:29;;;;;;;28.38;14.40;;;;;;;3.85;74.97;95153.25;6194229;23;20016;-82
2022/12/18 09:13:55;;;;;;;29.98;14.00;;;;;;;3.73;74.02;95158.63;6193920;23;20164;-83
2022/12/18 09:16:22;;;;;;;29.70;15.50;;;;;;;3.74;74.79;95163.63;6168014;23;19990;-82
2022/12/18 09:18:48;;;;;;;26.45;14.02;;;;;;;3.82;74.97;95170.38;6194050;23;19993;-82
2022/12/18 09:21:16;;;;;;;29.67;15.00;;;;;;;3.75;75.02;95152.06;6193948;23;20057;-82
2022/12/18 09:23:42;;;;;;;28.70;14.90;;;;;;;3.82;75.40;95155.34;6167664;23;20001;-82
2022/12/18 09:26:07;;;;;;;29.80;14.52;;;;;;;3.86;74.39;95160.94;6193819;23;19989;-82
2022/12/18 09:28:33;;;;;;;34.40;15.45;;;;;;;3.77;74.19;95167.66;6194260;23;19993;-81
2022/12/18 09:30:59;;;;;;;31.85;16.20;;;;;;;3.71;74.83;95155.44;6193957;23;20022;-81
2022/12/18 09:33:24;;;;;;;40.05;15.68;;;;;;;3.79;74.34;95155.03;6194100;23;20001;-82
2022/12/18 09:35:50;;;;;;;32.85;14.52;;;;;;;3.81;73.73;95161.66;6194108;23;20052;-83
2022/12/18 09:38:18;;;;;;;26.83;13.80;;;;;;;3.82;74.49;95171.16;6193670;23;19993;-82
2022/12/18 09:40:50;;;;;;;36.10;15.05;;;;;;;3.70;73.93;95165.16;6194002;23;20020;-82
2022/12/18 09:43:35;;;;;;;31.27;15.35;;;;;;;3.70;74.52;95159.88;6195877;23;20005;-82
2022/12/18 09:46:06;;;;;;;33.08;13.90;;;;;;;3.78;73.87;95162.13;6195782;23;20020;-81
2022/12/18 09:48:36;;;;;;;32.25;15.82;;;;;;;3.84;74.86;95155.09;6195786;23;19996;-82
2022/12/18 09:51:09;;;;;;;26.15;12.85;;;;;;;3.74;73.61;95168.13;6195597;23;20000;-82
2022/12/18 09:53:38;;;;;;;28.92;14.13;;;;;;;3.78;73.88;95164.75;6195920;23;20191;-82
2022/12/18 09:56:22;;;;;;;28.75;13.30;;;;;;;3.67;73.93;95162.22;6195499;23;19997;-81
2022/12/18 09:58:59;;;;;;;26.88;12.93;;;;;;;3.72;73.89;95155.16;6194980;23;20250;-82
2022/12/18 10:01:27;;;;;;;26.15;12.75;;;;;;;3.80;72.97;95153.97;6169141;23;20005;-82
2022/12/18 10:03:54;;;;;;;25.92;12.48;;;;;;;4.00;72.14;95150.88;6195543;23;20198;-81
2022/12/18 10:06:38;;;;;;;24.75;11.43;;;;;;;4.06;70.72;95147.28;6195242;23;20017;-81
2022/12/18 10:09:22;;;;;;;25.20;12.55;;;;;;;4.06;70.03;95149.13;6169492;23;20032;-77
2022/12/18 10:12:05;;;;;;;24.55;12.23;;;;;;;4.05;70.84;95156.25;6195922;23;20234;-77
2022/12/18 10:15:10;;;;;;;35.95;14.18;;;;;;;3.96;70.52;95149.75;6169326;23;20095;-77
2022/12/18 10:17:41;;;;;;;27.40;13.13;;;;;;;3.93;70.33;95169.50;6194647;23;20015;-77
2022/12/18 10:20:43;;;;;;;26.08;12.32;;;;;;;3.86;70.29;95162.78;6195617;23;20001;-77
2022/12/18 10:23:19;;;;;;;25.45;12.30;;;;;;;3.80;70.00;95173.22;6195561;23;20011;-77
2022/12/18 10:26:05;;;;;;;29.85;13.40;;;;;;;3.74;70.31;95161.00;6195677;23;19997;-77
2022/12/18 10:28:37;;;;;;;26.35;13.27;;;;;;;3.66;70.54;95164.03;6195435;23;20059;-77
2022/12/18 10:31:05;;;;;;;29.10;13.38;;;;;;;3.64;70.16;95174.00;6195562;23;19993;-78
2022/12/18 10:33:33;;;;;;;23.00;11.88;;;;;;;3.60;71.06;95167.59;6195668;23;20004;-77
2022/12/18 10:35:59;;;;;;;23.90;11.57;;;;;;;3.56;70.17;95166.47;6195277;23;20008;-78
2022/12/18 10:38:29;;;;;;;29.20;13.35;;;;;;;3.52;71.22;95168.00;6169270;23;20007;-78
2022/12/18 10:40:55;;;;;;;26.90;13.60;;;;;;;3.61;71.79;95166.59;6195470;23;20001;-78
2022/12/18 10:43:27;;;;;;;23.38;12.32;;;;;;;3.52;70.57;95163.53;6169145;23;20001;-78
2022/12/18 10:46:07;;;;;;;26.77;12.10;;;;;;;3.37;70.69;95169.31;6169364;23;20008;-78
2022/12/18 10:48:36;;;;;;;26.48;12.30;;;;;;;3.46;69.98;95168.94;6195257;23;20001;-78
2022/12/18 10:51:03;;;;;;;22.30;11.13;;;;;;;3.33;69.14;95157.66;6169097;23;20001;-78
2022/12/18 10:53:31;;;;;;;22.35;10.82;;;;;;;3.37;68.94;95157.97;6194735;23;20064;-78
2022/12/18 10:56:05;;;;;;;26.73;13.50;;;;;;;3.27;69.23;95163.06;6195351;23;20009;-78
2022/12/18 10:58:33;;;;;;;26.13;12.05;;;;;;;3.28;68.21;95176.00;6194982;23;19999;-74
2022/12/18 11:01:07;;;;;;;19.95;10.15;;;;;;;3.15;67.78;95161.25;6194986;23;20001;-76
2022/12/18 11:03:41;;;;;;;21.40;10.35;;;;;;;3.07;67.99;95172.16;6195308;23;20041;-77
2022/12/18 11:06:08;;;;;;;24.45;11.85;;;;;;;3.00;68.81;95174.13;6195061;23;20349;-77
2022/12/18 11:08:34;;;;;;;19.92;9.57;;;;;;;2.98;68.11;95174.38;6168757;23;20012;-76
2022/12/18 11:11:00;;;;;;;18.00;9.50;;;;;;;3.05;67.00;95160.25;6195421;23;20004;-78
2022/12/18 11:13:29;;;;;;;17.83;9.57;;;;;;;3.04;68.10;95175.28;6195145;23;19996;-79
2022/12/18 11:15:54;;;;;;;20.98;9.45;;;;;;;3.05;67.62;95163.69;6195038;23;20004;-79
2022/12/18 11:18:34;;;;;;;26.02;10.07;;;;;;;3.11;67.42;95169.88;6194633;23;19997;-79
2022/12/18 11:21:09;;;;;;;26.13;10.77;;;;;;;3.14;68.53;95166.78;6194960;23;20180;-78
2022/12/18 11:23:37;;;;;;;23.35;10.25;;;;;;;3.17;68.11;95167.09;6194883;23;20003;-79
2022/12/18 11:26:05;;;;;;;18.73;8.90;;;;;;;3.22;66.52;95174.31;6168674;23;20011;-79
2022/12/18 11:28:52;;;;;;;21.05;8.93;;;;;;;3.21;66.10;95170.06;6195047;23;20321;-79
2022/12/18 11:31:19;;;;;;;34.45;13.75;;;;;;;3.14;66.24;95166.78;6167973;23;20009;-79
2022/12/18 11:33:54;;;;;;;23.40;11.30;;;;;;;3.23;66.94;95154.81;6194364;23;20017;-79
2022/12/18 11:36:22;;;;;;;18.85;9.32;;;;;;;3.17;66.41;95163.66;6194703;23;20016;-79
2022/12/18 11:38:50;;;;;;;20.60;9.65;;;;;;;3.18;65.76;95160.00;6194655;23;20004;-77
2022/12/18 11:44:40;;;;;;;20.25;9.27;;;;;;;3.26;65.64;95172.81;6195105;23;20402;-78
2022/12/18 11:47:48;;;;;;;19.42;8.88;;;;;;;3.19;63.62;95180.84;6195259;23;20004;-87
2022/12/18 11:50:18;;;;;;;27.35;10.43;;;;;;;3.22;63.21;95182.22;6169728;23;20023;-87
2022/12/18 11:52:43;;;;;;;43.28;15.05;;;;;;;3.18;63.38;95171.34;6195609;23;19997;-88